createdAt,value
2019-02-26T00:01:32.264Z,42.63
2019-02-26T00:04:01.006Z,42.70
2019-02-26T00:06:30.243Z,44.53
2019-02-26T00:09:01.395Z,42.93
2019-02-26T00:11:30.860Z,46.73
2019-02-26T00:14:00.000Z,46.07
2019-02-26T00:16:28.801Z,48.90
2019-02-26T00:19:00.662Z,42.27
2019-02-26T00:21:29.287Z,40.63
2019-02-26T00:23:58.459Z,42.07
2019-02-26T00:26:27.244Z,42.33
2019-02-26T00:28:57.196Z,49.00
2019-02-26T00:31:28.160Z,46.23
2019-02-26T00:33:56.876Z,45.27
2019-02-26T00:36:27.128Z,45.77
2019-02-26T00:38:56.212Z,44.40
2019-02-26T00:41:26.893Z,42.37
2019-02-26T00:43:57.703Z,45.40
2019-02-26T00:46:28.504Z,41.60
2019-02-26T00:48:59.066Z,41.97
2019-02-26T00:51:28.309Z,38.23
2019-02-26T00:53:57.539Z,40.10
2019-02-26T00:56:29.439Z,47.83
2019-02-26T00:58:58.012Z,40.83
2019-02-26T01:01:26.792Z,39.53
2019-02-26T01:03:55.499Z,45.47
2019-02-26T01:06:25.133Z,38.33
2019-02-26T01:08:54.758Z,39.00
2019-02-26T01:11:24.323Z,42.97
2019-02-26T01:13:55.142Z,41.07
2019-02-26T01:16:24.388Z,39.23
2019-02-26T01:18:53.242Z,39.67
2019-02-26T01:21:26.181Z,37.30
2019-02-26T01:23:52.634Z,42.27
2019-02-26T01:26:21.370Z,50.27
2019-02-26T01:28:51.170Z,39.03
2019-02-26T01:31:22.441Z,42.47
2019-02-26T01:33:52.883Z,39.60
2019-02-26T01:36:23.716Z,44.17
2019-02-26T01:38:53.169Z,40.30
2019-02-26T01:41:23.237Z,44.60
2019-02-26T01:43:52.507Z,40.43
2019-02-26T01:46:21.241Z,42.97
2019-02-26T01:48:50.032Z,44.00
2019-02-26T01:51:19.382Z,44.47
2019-02-26T01:53:51.404Z,42.90
2019-02-26T01:56:20.484Z,39.37
2019-02-26T01:58:56.286Z,43.53
2019-02-26T02:01:23.285Z,37.27
2019-02-26T02:03:52.778Z,41.93
2019-02-26T02:06:20.728Z,43.13
2019-02-26T02:08:50.650Z,38.97
2019-02-26T02:11:23.421Z,44.63
2019-02-26T02:13:50.458Z,40.47
2019-02-26T02:16:19.242Z,36.00
2019-02-26T02:18:50.390Z,37.53
2019-02-26T02:21:18.393Z,40.67
2019-02-26T02:23:49.205Z,41.17
2019-02-26T02:26:17.629Z,41.00
2019-02-26T02:28:46.393Z,41.07
2019-02-26T02:31:15.177Z,37.40
2019-02-26T02:33:43.888Z,37.13
2019-02-26T02:36:15.028Z,38.63
2019-02-26T02:38:43.081Z,47.47
2019-02-26T02:41:11.795Z,43.60
2019-02-26T02:43:40.543Z,39.10
2019-02-26T02:46:09.356Z,40.13
2019-02-26T02:48:38.099Z,41.23
2019-02-26T02:51:08.452Z,49.27
2019-02-26T02:53:37.226Z,38.70
2019-02-26T02:56:07.477Z,38.43
2019-02-26T02:58:38.421Z,37.17
2019-02-26T03:01:06.843Z,34.57
2019-02-26T03:03:35.727Z,37.37
2019-02-26T03:06:06.547Z,36.60
2019-02-26T03:08:34.900Z,39.23
2019-02-26T03:11:03.613Z,40.43
2019-02-26T03:13:32.513Z,37.17
2019-02-26T03:16:01.689Z,41.67
2019-02-26T03:18:30.487Z,41.80
2019-02-26T03:21:01.438Z,41.30
2019-02-26T03:23:31.407Z,35.27
2019-02-26T03:26:00.051Z,39.67
2019-02-26T03:28:28.783Z,38.83
2019-02-26T03:30:57.491Z,39.40
2019-02-26T03:33:26.215Z,37.10
2019-02-26T03:35:54.973Z,36.50
2019-02-26T03:38:26.241Z,39.47
2019-02-26T03:40:59.086Z,40.00
2019-02-26T03:43:28.567Z,43.07
2019-02-26T03:45:56.679Z,36.33
2019-02-26T03:48:25.485Z,38.07
2019-02-26T03:50:54.409Z,38.30
2019-02-26T03:53:25.831Z,40.27
2019-02-26T03:55:59.543Z,38.90
2019-02-26T03:58:24.106Z,40.37
2019-02-26T04:00:52.935Z,41.10
2019-02-26T04:03:21.676Z,44.73
2019-02-26T04:05:50.395Z,38.93
2019-02-26T04:08:21.899Z,41.50
2019-02-26T04:10:50.767Z,43.00
2019-02-26T04:13:20.025Z,37.40
2019-02-26T04:15:51.515Z,41.63
2019-02-26T04:18:19.264Z,46.93
2019-02-26T04:20:48.011Z,41.67
2019-02-26T04:23:19.230Z,47.33
2019-02-26T04:25:51.503Z,45.47
2019-02-26T04:28:40.379Z,32.73
2019-02-26T04:31:49.280Z,37.33
2019-02-26T04:34:35.651Z,37.57
2019-02-26T04:37:27.362Z,40.17
2019-02-26T04:40:16.999Z,44.57
2019-02-26T04:43:04.707Z,41.57
2019-02-26T04:45:42.055Z,50.80
2019-02-26T04:48:14.717Z,40.13
2019-02-26T04:50:43.991Z,44.30
2019-02-26T04:53:11.758Z,38.50
2019-02-26T04:55:41.506Z,43.53
2019-02-26T04:58:14.299Z,46.97
2019-02-26T05:00:41.379Z,46.90
2019-02-26T05:03:11.825Z,48.20
2019-02-26T05:05:40.547Z,45.27
2019-02-26T05:08:10.570Z,46.37
2019-02-26T05:10:39.823Z,43.43
2019-02-26T05:13:09.660Z,45.63
2019-02-26T05:15:38.734Z,43.00
2019-02-26T05:18:07.436Z,46.97
2019-02-26T05:20:36.902Z,42.93
2019-02-26T05:23:06.596Z,43.70
2019-02-26T05:25:37.348Z,45.10
2019-02-26T05:28:06.564Z,48.87
2019-02-26T05:30:37.806Z,43.07
2019-02-26T05:33:07.013Z,43.93
2019-02-26T05:35:37.968Z,45.93
2019-02-26T05:38:07.702Z,45.67
2019-02-26T05:40:37.837Z,48.10
2019-02-26T05:43:07.122Z,38.30
2019-02-26T05:45:35.925Z,37.03
2019-02-26T05:48:04.771Z,41.40
2019-02-26T05:50:35.562Z,35.33
2019-02-26T05:53:05.541Z,40.23
2019-02-26T05:55:34.479Z,42.93
2019-02-26T05:58:03.284Z,43.70
2019-02-26T06:00:33.340Z,48.43
2019-02-26T06:03:03.576Z,40.27
2019-02-26T06:05:32.763Z,40.90
2019-02-26T06:08:01.501Z,35.17
2019-02-26T06:10:32.515Z,39.67
2019-02-26T06:13:02.192Z,45.67
2019-02-26T06:15:32.164Z,44.20
2019-02-26T06:18:01.620Z,43.97
2019-02-26T06:20:32.119Z,46.67
2019-02-26T06:23:00.842Z,42.77
2019-02-26T06:25:29.626Z,36.37
2019-02-26T06:28:02.296Z,44.77
2019-02-26T06:30:28.919Z,48.63
2019-02-26T06:33:02.098Z,46.90
2019-02-26T06:35:28.237Z,45.80
2019-02-26T06:37:57.001Z,42.77
2019-02-26T06:40:25.748Z,45.63
2019-02-26T06:42:54.506Z,45.43
2019-02-26T06:45:23.277Z,48.87
2019-02-26T06:47:53.969Z,51.53
2019-02-26T06:50:22.545Z,46.80
2019-02-26T06:52:54.104Z,41.37
2019-02-26T06:55:28.319Z,38.07
2019-02-26T06:58:16.227Z,43.73
2019-02-26T07:00:46.405Z,49.67
2019-02-26T07:03:15.523Z,52.00
2019-02-26T07:05:46.482Z,45.27
2019-02-26T07:08:14.822Z,49.73
2019-02-26T07:10:43.533Z,46.30
2019-02-26T07:13:14.057Z,43.37
2019-02-26T07:15:42.971Z,45.97
2019-02-26T07:18:16.955Z,44.87
2019-02-26T07:20:46.908Z,38.70
2019-02-26T07:23:15.549Z,45.67
2019-02-26T07:25:44.422Z,45.37
2019-02-26T07:28:15.160Z,49.27
2019-02-26T07:30:44.699Z,47.93
2019-02-26T07:33:15.062Z,59.53
2019-02-26T07:35:44.032Z,49.37
2019-02-26T07:38:12.772Z,46.17
2019-02-26T07:40:41.505Z,43.80
2019-02-26T07:43:14.433Z,50.30
2019-02-26T07:45:40.715Z,41.47
2019-02-26T07:48:09.471Z,43.90
2019-02-26T07:50:41.581Z,44.50
2019-02-26T07:53:08.746Z,50.30
2019-02-26T07:55:38.340Z,45.57
2019-02-26T07:58:09.185Z,51.87
2019-02-26T08:00:40.349Z,45.77
2019-02-26T08:03:08.827Z,47.70
2019-02-26T08:05:37.675Z,46.17
2019-02-26T08:08:06.437Z,47.87
2019-02-26T08:10:37.481Z,42.73
2019-02-26T08:13:07.897Z,44.67
2019-02-26T08:15:37.554Z,49.37
2019-02-26T08:18:06.582Z,48.37
2019-02-26T08:20:37.501Z,51.20
2019-02-26T08:23:05.858Z,46.13
2019-02-26T08:25:34.671Z,91.33
2019-02-26T08:28:03.474Z,54.30
2019-02-26T08:30:32.408Z,59.60
2019-02-26T08:33:04.155Z,52.13
2019-02-26T08:35:31.581Z,51.17
2019-02-26T08:38:00.301Z,47.43
2019-02-26T08:40:29.010Z,54.83
2019-02-26T08:42:57.732Z,48.77
2019-02-26T08:45:26.555Z,56.57
2019-02-26T08:47:55.318Z,55.50
2019-02-26T08:50:24.060Z,49.73
2019-02-26T08:52:55.369Z,53.33
2019-02-26T08:55:24.569Z,47.00
2019-02-26T08:57:54.652Z,53.20
2019-02-26T09:00:24.073Z,55.30
2019-02-26T09:02:54.459Z,55.57
2019-02-26T09:05:25.462Z,50.57
2019-02-26T09:07:53.745Z,54.27
2019-02-26T09:10:23.574Z,54.70
2019-02-26T09:12:52.461Z,49.87
2019-02-26T09:15:21.243Z,51.23
2019-02-26T09:17:49.978Z,48.83
2019-02-26T09:20:18.699Z,57.97
2019-02-26T09:22:48.744Z,48.50
2019-02-26T09:25:20.350Z,46.53
2019-02-26T09:27:48.453Z,47.70
2019-02-26T09:30:17.350Z,48.63
2019-02-26T09:32:46.105Z,50.30
2019-02-26T09:35:16.917Z,46.10
2019-02-26T09:37:47.889Z,51.60
2019-02-26T09:40:17.208Z,51.97
2019-02-26T09:42:51.200Z,50.77
2019-02-26T09:45:18.701Z,49.00
2019-02-26T09:47:49.673Z,47.30
2019-02-26T09:50:20.715Z,50.63
2019-02-26T09:52:50.828Z,48.17
2019-02-26T09:55:19.572Z,46.47
2019-02-26T09:57:48.320Z,44.13
2019-02-26T10:00:19.426Z,50.00
2019-02-26T10:02:49.473Z,48.93
2019-02-26T10:05:18.483Z,50.93
2019-02-26T10:07:47.287Z,46.70
2019-02-26T10:10:16.488Z,52.30
2019-02-26T10:12:45.230Z,45.40
2019-02-26T10:15:14.385Z,45.93
2019-02-26T10:17:45.094Z,51.77
2019-02-26T10:20:14.774Z,49.33
2019-02-26T10:22:43.528Z,46.30
2019-02-26T10:25:12.468Z,50.50
2019-02-26T10:27:43.060Z,46.03
2019-02-26T10:30:14.374Z,49.33
2019-02-26T10:32:44.064Z,46.50
2019-02-26T10:35:16.574Z,49.93
2019-02-26T10:37:46.296Z,48.93
2019-02-26T10:40:16.963Z,51.03
2019-02-26T10:42:46.263Z,47.60
2019-02-26T10:45:16.230Z,51.00
2019-02-26T10:47:45.018Z,51.80
2019-02-26T10:50:16.335Z,48.23
2019-02-26T10:52:45.399Z,46.87
2019-02-26T10:55:17.271Z,46.70
2019-02-26T10:57:47.749Z,45.53
2019-02-26T11:00:17.285Z,49.67
2019-02-26T11:02:48.046Z,45.33
2019-02-26T11:05:19.730Z,43.43
2019-02-26T11:07:47.030Z,47.27
2019-02-26T11:10:19.594Z,46.50
2019-02-26T11:12:48.015Z,44.43
2019-02-26T11:15:16.662Z,48.20
2019-02-26T11:17:46.119Z,45.93
2019-02-26T11:20:15.840Z,48.53
2019-02-26T11:22:44.793Z,47.57
2019-02-26T11:25:17.937Z,46.30
2019-02-26T11:27:45.871Z,47.60
2019-02-26T11:30:18.283Z,47.63
2019-02-26T11:32:47.200Z,46.07
2019-02-26T11:35:17.630Z,47.10
2019-02-26T11:37:47.405Z,41.30
2019-02-26T11:40:18.158Z,41.37
2019-02-26T11:42:49.351Z,44.57
2019-02-26T11:45:19.383Z,44.23
2019-02-26T11:47:48.520Z,40.67
2019-02-26T11:50:17.596Z,45.23
2019-02-26T11:52:46.395Z,38.93
2019-02-26T11:55:15.264Z,42.00
2019-02-26T11:57:45.685Z,43.47
2019-02-26T12:00:24.365Z,39.30
2019-02-26T12:02:47.496Z,41.50
2019-02-26T12:05:16.206Z,40.50
2019-02-26T12:07:46.147Z,40.77
2019-02-26T12:10:15.389Z,39.77
2019-02-26T12:12:44.152Z,39.97
2019-02-26T12:15:15.174Z,38.37
2019-02-26T12:17:46.117Z,39.43
2019-02-26T12:20:17.191Z,42.10
2019-02-26T12:22:47.941Z,38.57
2019-02-26T12:25:15.951Z,38.70
2019-02-26T12:27:45.622Z,45.13
2019-02-26T12:30:18.022Z,40.30
2019-02-26T12:32:47.652Z,40.30
2019-02-26T12:35:17.939Z,61.20
2019-02-26T12:37:47.285Z,94.97
2019-02-26T12:40:19.401Z,58.43
2019-02-26T12:42:47.867Z,38.73
2019-02-26T12:45:16.656Z,43.07
2019-02-26T12:47:48.152Z,39.53
2019-02-26T12:50:16.174Z,38.57
2019-02-26T12:52:47.480Z,39.73
2019-02-26T12:55:15.625Z,37.60
2019-02-26T12:57:47.244Z,39.17
2019-02-26T13:00:19.200Z,41.67
2019-02-26T13:02:49.393Z,38.33
2019-02-26T13:05:19.596Z,37.70
2019-02-26T13:07:47.607Z,34.23
2019-02-26T13:10:17.825Z,33.13
2019-02-26T13:12:49.679Z,38.67
2019-02-26T13:15:19.384Z,36.57
2019-02-26T13:17:53.313Z,39.53
2019-02-26T13:20:22.218Z,39.43
2019-02-26T13:22:56.315Z,37.13
2019-02-26T13:25:22.573Z,37.57
2019-02-26T13:27:51.892Z,37.10
2019-02-26T13:30:21.252Z,38.23
2019-02-26T13:35:20.588Z,35.13
2019-02-26T13:37:49.667Z,36.23
2019-02-26T13:40:18.877Z,41.43
2019-02-26T13:42:56.566Z,37.20
2019-02-26T13:45:19.394Z,38.53
2019-02-26T13:47:48.144Z,40.40
2019-02-26T13:50:19.405Z,35.63
2019-02-26T13:52:48.234Z,37.07
2019-02-26T13:55:16.977Z,34.27
2019-02-26T13:57:46.178Z,36.70
2019-02-26T14:00:15.319Z,39.63
2019-02-26T14:02:44.060Z,36.60
2019-02-26T14:05:12.857Z,32.70
2019-02-26T14:07:41.665Z,34.80
2019-02-26T14:10:11.375Z,34.00
2019-02-26T14:12:40.159Z,31.83
2019-02-26T14:15:12.133Z,37.83
2019-02-26T14:17:40.933Z,33.33
2019-02-26T14:20:10.042Z,37.97
2019-02-26T14:22:38.854Z,35.73
2019-02-26T14:25:07.839Z,46.73
2019-02-26T14:27:36.707Z,48.27
2019-02-26T14:30:05.765Z,48.87
2019-02-26T14:32:34.615Z,43.87
2019-02-26T14:35:03.674Z,40.40
2019-02-26T14:37:32.541Z,33.50
2019-02-26T14:40:01.424Z,36.97
2019-02-26T14:42:30.319Z,35.33
2019-02-26T14:44:59.145Z,39.13
2019-02-26T14:47:27.868Z,40.33
2019-02-26T14:49:56.601Z,38.87
2019-02-26T14:52:25.345Z,41.43
2019-02-26T14:54:54.234Z,38.43
2019-02-26T14:57:23.010Z,39.83
2019-02-26T14:59:51.741Z,42.93
2019-02-26T15:02:20.562Z,36.67
2019-02-26T15:04:49.365Z,44.07
2019-02-26T15:07:18.287Z,38.93
2019-02-26T15:09:47.026Z,38.97
2019-02-26T15:12:15.844Z,39.93
2019-02-26T15:14:44.582Z,43.83
2019-02-26T15:17:13.361Z,43.80
2019-02-26T15:19:50.169Z,43.63
2019-02-26T15:22:14.737Z,39.90
2019-02-26T15:24:43.216Z,42.20
2019-02-26T15:27:12.018Z,43.97
2019-02-26T15:29:44.804Z,43.23
2019-02-26T15:32:32.265Z,39.97
2019-02-26T15:35:01.076Z,41.90
2019-02-26T15:37:29.878Z,43.20
2019-02-26T15:39:59.017Z,44.83
2019-02-26T15:42:27.871Z,41.30
2019-02-26T15:44:57.621Z,47.13
2019-02-26T15:47:27.174Z,42.17
2019-02-26T15:49:56.051Z,38.53
2019-02-26T15:52:27.975Z,42.13
2019-02-26T15:54:57.652Z,44.37
2019-02-26T15:57:28.557Z,41.70
2019-02-26T15:59:57.382Z,47.57
2019-02-26T16:02:28.527Z,41.13
2019-02-26T16:04:56.876Z,40.23
2019-02-26T16:07:25.648Z,47.20
2019-02-26T16:09:54.434Z,42.37
2019-02-26T16:12:23.279Z,43.90
2019-02-26T16:14:52.209Z,45.07
2019-02-26T16:17:20.973Z,39.97
2019-02-26T16:19:49.820Z,48.10
2019-02-26T16:22:18.627Z,43.90
2019-02-26T16:24:47.385Z,43.33
2019-02-26T16:27:16.497Z,49.97
2019-02-26T16:29:45.299Z,45.73
2019-02-26T16:32:14.086Z,45.37
2019-02-26T16:34:42.891Z,41.97
2019-02-26T16:37:11.706Z,43.33
2019-02-26T16:39:40.812Z,50.80
2019-02-26T16:42:11.429Z,50.67
2019-02-26T16:44:39.999Z,45.57
2019-02-26T16:47:08.805Z,51.77
2019-02-26T16:49:37.668Z,48.60
2019-02-26T16:52:06.710Z,49.53
2019-02-26T16:54:35.514Z,54.00
2019-02-26T16:57:04.323Z,51.23
2019-02-26T16:59:33.074Z,52.20
2019-02-26T17:02:01.928Z,51.03
2019-02-26T17:04:30.964Z,51.97
2019-02-26T17:06:59.807Z,53.37
2019-02-26T17:09:28.531Z,51.93
2019-02-26T17:11:57.349Z,59.77
2019-02-26T17:14:26.190Z,55.00
2019-02-26T17:16:55.008Z,52.53
2019-02-26T17:19:23.814Z,54.10
2019-02-26T17:21:52.602Z,51.07
2019-02-26T17:24:21.452Z,46.93
2019-02-26T17:26:50.307Z,52.60
2019-02-26T17:29:19.777Z,54.63
2019-02-26T17:31:48.658Z,52.77
2019-02-26T17:34:20.615Z,51.10
2019-02-26T17:36:49.520Z,50.60
2019-02-26T17:39:20.179Z,50.50
2019-02-26T17:41:48.795Z,47.30
2019-02-26T17:44:17.596Z,49.27
2019-02-26T17:46:48.228Z,50.37
2019-02-26T17:49:18.060Z,54.83
2019-02-26T17:51:46.929Z,57.97
2019-02-26T17:54:16.068Z,61.90
2019-02-26T17:56:44.873Z,49.17
2019-02-26T17:59:16.531Z,49.57
2019-02-26T18:01:46.249Z,55.13
2019-02-26T18:04:14.992Z,57.50
2019-02-26T18:06:46.688Z,86.00
2019-02-26T18:09:15.519Z,98.47
2019-02-26T18:11:45.648Z,66.13
2019-02-26T18:14:14.639Z,64.43
2019-02-26T18:16:43.548Z,61.63
2019-02-26T18:19:13.000Z,55.20
2019-02-26T18:21:43.621Z,64.77
2019-02-26T18:24:12.331Z,59.17
2019-02-26T18:26:41.087Z,63.03
2019-02-26T18:29:09.857Z,56.90
2019-02-26T18:31:38.693Z,54.67
2019-02-26T18:34:07.538Z,56.67
2019-02-26T18:36:36.420Z,46.97
2019-02-26T18:39:06.028Z,60.40
2019-02-26T18:41:35.990Z,62.27
2019-02-26T18:44:10.147Z,60.90
2019-02-26T18:46:39.145Z,58.60
2019-02-26T18:49:11.997Z,52.17
2019-02-26T18:51:40.935Z,56.80
2019-02-26T18:54:09.816Z,55.03
2019-02-26T18:56:44.138Z,57.57
2019-02-26T18:59:13.017Z,57.67
2019-02-26T19:01:43.692Z,62.40
2019-02-26T19:04:16.277Z,55.33
2019-02-26T19:06:45.664Z,53.63
2019-02-26T19:09:14.536Z,50.97
2019-02-26T19:11:44.677Z,57.63
2019-02-26T19:14:14.791Z,59.93
2019-02-26T19:16:48.651Z,49.97
2019-02-26T19:19:16.632Z,57.97
2019-02-26T19:21:45.460Z,54.83
2019-02-26T19:24:14.349Z,53.60
2019-02-26T19:26:46.658Z,56.97
2019-02-26T19:29:18.048Z,54.43
2019-02-26T19:31:47.006Z,53.87
2019-02-26T19:34:15.957Z,50.67
2019-02-26T19:36:45.908Z,53.50
2019-02-26T19:39:15.260Z,50.57
2019-02-26T19:41:45.476Z,59.03
2019-02-26T19:44:14.936Z,54.80
2019-02-26T19:46:43.789Z,63.07
2019-02-26T19:49:14.369Z,61.37
2019-02-26T19:51:43.345Z,65.10
2019-02-26T19:54:12.229Z,56.27
2019-02-26T19:56:41.196Z,48.80
2019-02-26T19:59:13.503Z,52.20
2019-02-26T20:01:45.656Z,58.67
2019-02-26T20:04:14.205Z,51.97
2019-02-26T20:06:43.232Z,53.53
2019-02-26T20:09:13.275Z,58.20
2019-02-26T20:11:42.286Z,52.53
2019-02-26T20:14:11.574Z,60.30
2019-02-26T20:16:41.768Z,62.10
2019-02-26T20:19:10.759Z,51.43
2019-02-26T20:21:39.682Z,60.47
2019-02-26T20:24:11.565Z,51.60
2019-02-26T20:26:40.488Z,63.47
2019-02-26T20:29:09.365Z,52.67
2019-02-26T20:31:38.225Z,63.73
2019-02-26T20:34:07.353Z,56.67
2019-02-26T20:36:36.206Z,53.33
2019-02-26T20:39:07.978Z,50.57
2019-02-26T20:41:36.741Z,56.53
2019-02-26T20:44:07.846Z,47.30
2019-02-26T20:46:36.182Z,81.93
2019-02-26T20:49:05.023Z,56.33
2019-02-26T20:51:33.944Z,59.73
2019-02-26T20:54:02.770Z,54.60
2019-02-26T20:56:31.890Z,63.20
2019-02-26T20:59:00.730Z,59.27
2019-02-26T21:01:29.677Z,56.57
2019-02-26T21:04:00.198Z,50.30
2019-02-26T21:06:28.975Z,53.47
2019-02-26T21:08:57.899Z,48.53
2019-02-26T21:11:26.668Z,45.93
2019-02-26T21:13:55.429Z,50.60
2019-02-26T21:16:24.262Z,60.27
2019-02-26T21:18:53.019Z,48.57
2019-02-26T21:21:21.804Z,51.03
2019-02-26T21:23:50.574Z,58.57
2019-02-26T21:26:20.220Z,50.50
2019-02-26T21:28:49.221Z,50.13
2019-02-26T21:31:18.992Z,46.03
2019-02-26T21:33:48.461Z,53.60
2019-02-26T21:36:17.235Z,51.63
2019-02-26T21:38:46.035Z,54.77
2019-02-26T21:41:14.777Z,54.40
2019-02-26T21:43:43.533Z,56.73
2019-02-26T21:46:12.358Z,54.47
2019-02-26T21:48:41.265Z,50.53
2019-02-26T21:51:10.129Z,53.40
2019-02-26T21:53:39.890Z,52.03
2019-02-26T21:56:08.763Z,48.20
2019-02-26T21:58:37.675Z,56.27
2019-02-26T22:01:06.586Z,56.43
2019-02-26T22:03:35.409Z,55.40
2019-02-26T22:06:05.535Z,58.60
2019-02-26T22:08:34.551Z,56.97
2019-02-26T22:11:03.399Z,46.37
2019-02-26T22:13:32.247Z,53.83
2019-02-26T22:16:01.060Z,55.33
2019-02-26T22:18:34.031Z,52.33
2019-02-26T22:21:00.358Z,62.93
2019-02-26T22:23:29.440Z,48.27
2019-02-26T22:25:58.356Z,56.37
2019-02-26T22:28:27.193Z,56.63
2019-02-26T22:30:56.526Z,51.07
2019-02-26T22:33:25.376Z,57.83
2019-02-26T22:35:54.177Z,57.77
2019-02-26T22:38:22.944Z,52.70
2019-02-26T22:40:51.693Z,47.50
2019-02-26T22:43:20.520Z,52.23
2019-02-26T22:45:49.359Z,49.93
2019-02-26T22:48:18.113Z,52.23
2019-02-26T22:50:46.844Z,54.80
2019-02-26T22:53:15.573Z,46.00
2019-02-26T22:55:44.388Z,57.47
2019-02-26T22:58:14.300Z,53.23
2019-02-26T23:01:06.109Z,46.07
2019-02-26T23:03:35.110Z,56.37
2019-02-26T23:06:04.037Z,48.07
2019-02-26T23:08:32.796Z,44.07
2019-02-26T23:11:01.657Z,56.37
2019-02-26T23:13:32.020Z,51.93
2019-02-26T23:16:01.303Z,51.17
2019-02-26T23:18:30.956Z,53.10
2019-02-26T23:21:00.454Z,50.10
2019-02-26T23:23:29.208Z,39.50
2019-02-26T23:25:57.943Z,41.57
2019-02-26T23:28:26.648Z,55.97
2019-02-26T23:30:59.641Z,51.43
2019-02-26T23:33:25.856Z,42.10
2019-02-26T23:35:55.515Z,43.50
2019-02-26T23:38:24.403Z,48.13
2019-02-26T23:40:53.142Z,49.43
2019-02-26T23:43:21.840Z,48.80
2019-02-26T23:45:50.559Z,37.07
2019-02-26T23:48:19.378Z,47.77
2019-02-26T23:50:48.192Z,46.67
2019-02-26T23:53:17.007Z,50.57
2019-02-26T23:55:47.271Z,54.83
2019-02-26T23:58:16.989Z,49.60
